Time;durP1;ratioP1;P1;durP2;ratioP2;P2;SDS_P1;SDS_P2;PMS_P1;PMS_P2;Temp;Humidity;BMP_temperature;BMP_pressure;BME280_temperature;BME280_humidity;BME280_pressure;Samples;Min_cycle;Max_cycle;Signal;HPM_P1;HPM_P2
2021/09/24 00:01:52;;;;;;;0.27;0.27;;;17.10;99.90;;;;;;5087985;28;20203;-83
2021/09/24 00:04:17;;;;;;;0.30;0.30;;;17.00;99.90;;;;;;5065648;28;20188;-83
2021/09/24 00:06:44;;;;;;;0.30;0.30;;;17.10;99.90;;;;;;5074946;28;20196;-83
2021/09/24 00:09:10;;;;;;;0.27;0.27;;;17.10;99.90;;;;;;5084364;28;20220;-83
2021/09/24 00:11:37;;;;;;;0.13;0.13;;;17.00;99.90;;;;;;5090063;28;20213;-83
2021/09/24 00:14:03;;;;;;;0.37;0.37;;;17.10;99.90;;;;;;5092598;28;20213;-84
2021/09/24 00:16:29;;;;;;;2.63;0.20;;;17.10;99.90;;;;;;5086015;28;20185;-83
2021/09/24 00:18:54;;;;;;;1.90;0.40;;;17.10;99.90;;;;;;5087083;28;20645;-83
2021/09/24 00:21:20;;;;;;;0.60;0.40;;;17.00;99.90;;;;;;5085622;28;20206;-83
2021/09/24 00:23:46;;;;;;;0.20;0.20;;;16.90;99.90;;;;;;5089069;28;20275;-83
2021/09/24 00:26:11;;;;;;;0.20;0.20;;;16.90;99.90;;;;;;5078271;28;20188;-83
2021/09/24 00:28:37;;;;;;;0.43;0.43;;;16.90;99.90;;;;;;5079454;28;20211;-84
2021/09/24 00:31:03;;;;;;;0.20;0.20;;;16.80;99.90;;;;;;5100356;28;20194;-84
2021/09/24 00:33:28;;;;;;;0.53;0.33;;;16.60;99.90;;;;;;5091143;28;20200;-83
2021/09/24 00:35:55;;;;;;;0.30;0.30;;;16.60;99.90;;;;;;5083777;28;20176;-84
2021/09/24 00:38:21;;;;;;;0.63;0.50;;;16.50;99.90;;;;;;5081692;28;20186;-84
2021/09/24 00:40:47;;;;;;;0.47;0.30;;;16.40;99.90;;;;;;5083924;28;20185;-83
2021/09/24 00:43:13;;;;;;;0.30;0.30;;;16.30;99.90;;;;;;5087553;28;20202;-83
2021/09/24 00:45:38;;;;;;;0.33;0.33;;;16.20;99.90;;;;;;5089661;28;20193;-83
2021/09/24 00:48:04;;;;;;;0.20;0.20;;;16.10;99.90;;;;;;5088541;28;20639;-83
2021/09/24 00:50:30;;;;;;;0.50;0.27;;;16.00;99.90;;;;;;5084319;28;20224;-83
2021/09/24 00:52:56;;;;;;;0.30;0.30;;;16.00;99.90;;;;;;5087390;28;20211;-84
2021/09/24 00:55:22;;;;;;;1.07;0.83;;;15.90;99.90;;;;;;5090009;28;20655;-84
2021/09/24 00:57:48;;;;;;;0.63;0.63;;;15.80;99.90;;;;;;5083691;28;20176;-83
2021/09/24 01:00:14;;;;;;;0.50;0.33;;;15.80;99.90;;;;;;5089074;28;20183;-83
2021/09/24 01:02:39;;;;;;;0.40;0.40;;;15.70;99.90;;;;;;5092447;28;20297;-83
2021/09/24 01:05:08;;;;;;;0.43;0.43;;;15.70;99.90;;;;;;5092719;28;20275;-83
2021/09/24 01:07:42;;;;;;;0.40;0.40;;;15.60;99.90;;;;;;5096106;28;20644;-84
2021/09/24 01:10:09;;;;;;;0.77;0.47;;;15.60;99.90;;;;;;5097159;28;20186;-83
2021/09/24 01:12:36;;;;;;;0.20;0.20;;;15.50;99.90;;;;;;5090577;28;20206;-83
2021/09/24 01:15:08;;;;;;;0.20;0.20;;;15.50;99.90;;;;;;5099240;28;20188;-83
2021/09/24 01:17:34;;;;;;;0.37;0.37;;;15.40;99.90;;;;;;5087526;28;20236;-83
2021/09/24 01:19:59;;;;;;;0.57;0.40;;;15.40;99.90;;;;;;5087334;28;20184;-83
2021/09/24 01:22:26;;;;;;;2.60;0.53;;;15.40;99.90;;;;;;5093446;28;20211;-83
2021/09/24 01:24:51;;;;;;;0.23;0.23;;;15.40;99.90;;;;;;5099030;28;20195;-83
2021/09/24 01:27:17;;;;;;;0.50;0.30;;;15.30;99.90;;;;;;5078670;28;20247;-83
2021/09/24 01:29:48;;;;;;;0.20;0.20;;;15.30;99.90;;;;;;5082623;28;20237;-83
2021/09/24 01:32:13;;;;;;;0.50;0.50;;;15.20;99.90;;;;;;5088968;28;20206;-83
2021/09/24 01:34:39;;;;;;;0.30;0.30;;;15.10;99.90;;;;;;5089187;28;20210;-83
2021/09/24 01:37:04;;;;;;;0.30;0.30;;;15.10;99.90;;;;;;5072152;28;20595;-83
2021/09/24 01:39:30;;;;;;;0.90;0.90;;;15.00;99.90;;;;;;5097496;28;20178;-83
2021/09/24 01:41:55;;;;;;;0.40;0.40;;;15.00;99.90;;;;;;5094147;28;20203;-83
2021/09/24 01:44:21;;;;;;;0.27;0.27;;;15.00;99.90;;;;;;5100209;28;20186;-83
2021/09/24 01:46:47;;;;;;;0.20;0.20;;;14.90;99.90;;;;;;5094320;28;20212;-83
2021/09/24 01:49:13;;;;;;;0.30;0.23;;;14.90;99.90;;;;;;5082852;28;20190;-83
2021/09/24 01:51:43;;;;;;;0.20;0.20;;;14.90;99.90;;;;;;5086821;28;20270;-83
2021/09/24 01:54:11;;;;;;;0.50;0.50;;;14.80;99.90;;;;;;5075802;28;20201;-83
2021/09/24 01:56:36;;;;;;;0.80;0.80;;;14.80;99.90;;;;;;5078018;28;20178;-83
2021/09/24 01:59:04;;;;;;;0.37;0.37;;;14.80;99.90;;;;;;5091411;28;20264;-83
2021/09/24 02:01:29;;;;;;;0.67;0.40;;;14.80;99.90;;;;;;5088296;28;20234;-83
2021/09/24 02:03:55;;;;;;;0.10;0.10;;;14.70;99.90;;;;;;5085292;28;20185;-82
2021/09/24 02:06:20;;;;;;;0.13;0.13;;;14.70;99.90;;;;;;5092145;28;20728;-82
2021/09/24 02:08:46;;;;;;;5.47;0.60;;;14.70;99.90;;;;;;5097741;28;20219;-82
2021/09/24 02:11:12;;;;;;;0.50;0.40;;;14.60;99.90;;;;;;5099806;28;20187;-82
2021/09/24 02:13:38;;;;;;;0.20;0.20;;;14.60;99.90;;;;;;5095501;28;20241;-82
2021/09/24 02:16:04;;;;;;;0.20;0.20;;;14.60;99.90;;;;;;5092724;28;20181;-82
2021/09/24 02:18:30;;;;;;;0.93;0.40;;;14.50;99.90;;;;;;5100521;28;20212;-82
2021/09/24 02:20:56;;;;;;;0.83;0.50;;;14.50;99.90;;;;;;5094198;28;20174;-83
2021/09/24 02:23:21;;;;;;;0.20;0.20;;;14.50;99.90;;;;;;5091300;28;20187;-83
2021/09/24 02:25:47;;;;;;;0.10;0.10;;;14.50;99.90;;;;;;5092839;28;20374;-83
2021/09/24 02:28:13;;;;;;;0.33;0.33;;;14.50;99.90;;;;;;5090717;28;20646;-83
2021/09/24 02:30:39;;;;;;;0.13;0.13;;;14.50;99.90;;;;;;5090946;28;20275;-82
2021/09/24 02:33:05;;;;;;;0.87;0.73;;;14.60;99.90;;;;;;5098661;28;20219;-82
2021/09/24 02:35:31;;;;;;;0.20;0.20;;;14.60;99.90;;;;;;5093823;28;20210;-83
2021/09/24 02:37:56;;;;;;;0.30;0.30;;;14.50;99.90;;;;;;5096326;28;20190;-83
2021/09/24 02:40:22;;;;;;;0.17;0.17;;;14.50;99.90;;;;;;5100744;28;20186;-83
2021/09/24 02:42:47;;;;;;;0.00;0.00;;;14.50;99.90;;;;;;5103657;28;20678;-82
2021/09/24 02:45:13;;;;;;;0.40;0.40;;;14.50;99.90;;;;;;5097977;28;20186;-83
2021/09/24 02:47:39;;;;;;;0.20;0.20;;;14.50;99.90;;;;;;5101385;28;20223;-83
2021/09/24 02:50:06;;;;;;;0.30;0.30;;;14.50;99.90;;;;;;5097213;28;20189;-83
2021/09/24 02:52:32;;;;;;;0.20;0.20;;;14.40;99.90;;;;;;5093256;28;20210;-82
2021/09/24 02:54:58;;;;;;;0.50;0.50;;;14.40;99.90;;;;;;5087410;28;20183;-83
2021/09/24 02:57:24;;;;;;;0.60;0.60;;;14.30;99.90;;;;;;5092924;28;20187;-82
2021/09/24 02:59:49;;;;;;;0.87;0.53;;;14.30;99.90;;;;;;5104476;28;20188;-83
2021/09/24 03:02:15;;;;;;;0.73;0.60;;;14.30;99.90;;;;;;5085114;28;20254;-83
2021/09/24 03:04:41;;;;;;;1.27;0.53;;;14.30;99.90;;;;;;5095662;28;20569;-82
2021/09/24 03:07:06;;;;;;;0.77;0.77;;;14.30;99.90;;;;;;5103046;28;20570;-83
2021/09/24 03:09:32;;;;;;;0.20;0.20;;;14.30;99.90;;;;;;5097517;28;20194;-83
2021/09/24 03:11:58;;;;;;;0.20;0.20;;;14.30;99.90;;;;;;5105369;28;20208;-83
2021/09/24 03:14:23;;;;;;;0.23;0.23;;;14.30;99.90;;;;;;5099095;28;20221;-83
2021/09/24 03:16:49;;;;;;;0.30;0.30;;;14.30;99.90;;;;;;5093254;28;20181;-83
2021/09/24 03:19:19;;;;;;;0.10;0.10;;;14.30;99.90;;;;;;5093633;28;20199;-83
2021/09/24 03:21:45;;;;;;;0.27;0.27;;;14.20;99.90;;;;;;5091146;28;20250;-82
2021/09/24 03:24:10;;;;;;;0.20;0.20;;;14.30;99.90;;;;;;5095059;28;20196;-83
2021/09/24 03:26:36;;;;;;;0.20;0.20;;;14.20;99.90;;;;;;5109847;28;20198;-83
2021/09/24 03:29:03;;;;;;;0.87;0.20;;;14.10;99.90;;;;;;5087850;28;20195;-83
2021/09/24 03:31:28;;;;;;;0.20;0.20;;;14.10;99.90;;;;;;5092191;28;20245;-83
2021/09/24 03:33:54;;;;;;;0.30;0.30;;;14.00;99.90;;;;;;5099838;28;20232;-82
2021/09/24 03:36:20;;;;;;;0.40;0.20;;;14.00;99.90;;;;;;5099131;28;20180;-82
2021/09/24 03:38:45;;;;;;;0.10;0.10;;;14.10;99.90;;;;;;5099909;28;20246;-83
2021/09/24 03:41:11;;;;;;;0.20;0.20;;;14.20;99.90;;;;;;5091919;28;20190;-83
2021/09/24 03:43:37;;;;;;;0.40;0.30;;;14.30;99.90;;;;;;5092450;28;20227;-83
2021/09/24 03:46:03;;;;;;;0.50;0.43;;;14.30;99.90;;;;;;5086131;28;20156;-84
2021/09/24 03:48:28;;;;;;;0.47;0.40;;;14.20;99.90;;;;;;5089637;28;20196;-83
2021/09/24 03:50:54;;;;;;;1.50;0.40;;;14.30;99.90;;;;;;5096189;28;20179;-83
2021/09/24 03:53:20;;;;;;;0.37;0.30;;;14.20;99.90;;;;;;5094811;28;20205;-83
2021/09/24 03:55:46;;;;;;;0.43;0.43;;;14.20;99.90;;;;;;5090132;28;20246;-80
2021/09/24 03:58:12;;;;;;;0.30;0.30;;;14.20;99.90;;;;;;5086224;28;20177;-80
2021/09/24 04:00:37;;;;;;;0.77;0.77;;;14.20;99.90;;;;;;5099039;28;20250;-80
2021/09/24 04:03:03;;;;;;;1.33;0.50;;;14.10;99.90;;;;;;5097952;28;20278;-81
2021/09/24 04:05:28;;;;;;;0.40;0.40;;;14.10;99.90;;;;;;5106835;28;20168;-81
2021/09/24 04:07:54;;;;;;;0.13;0.13;;;14.10;99.90;;;;;;5103656;28;20181;-81
2021/09/24 04:10:19;;;;;;;0.37;0.37;;;14.10;99.90;;;;;;5101731;28;20252;-81
2021/09/24 04:12:45;;;;;;;0.20;0.20;;;14.10;99.90;;;;;;5088952;28;20212;-81
2021/09/24 04:15:11;;;;;;;0.23;0.23;;;14.10;99.90;;;;;;5100941;28;20198;-81
2021/09/24 04:17:36;;;;;;;0.40;0.30;;;13.90;99.90;;;;;;5109116;28;20190;-80
2021/09/24 04:20:03;;;;;;;0.37;0.30;;;13.90;99.90;;;;;;5105731;28;20191;-80
2021/09/24 04:22:28;;;;;;;0.30;0.30;;;13.90;99.90;;;;;;5090237;28;20216;-81
2021/09/24 04:24:54;;;;;;;1.10;0.40;;;13.70;99.90;;;;;;5099844;28;20169;-80
2021/09/24 04:27:19;;;;;;;0.30;0.30;;;13.80;99.90;;;;;;5089067;28;20222;-81
2021/09/24 04:29:45;;;;;;;0.20;0.20;;;13.90;99.90;;;;;;5090914;28;20212;-81
2021/09/24 04:32:10;;;;;;;1.50;0.67;;;13.80;99.90;;;;;;5086808;28;20205;-81
2021/09/24 04:34:36;;;;;;;0.30;0.23;;;13.90;99.90;;;;;;5094833;28;20216;-81
2021/09/24 04:37:02;;;;;;;0.33;0.33;;;13.90;99.90;;;;;;5092716;28;20535;-81
2021/09/24 04:39:27;;;;;;;0.30;0.20;;;13.80;99.90;;;;;;5107740;28;20170;-82
2021/09/24 04:41:53;;;;;;;0.20;0.20;;;13.90;99.90;;;;;;5102270;28;20228;-82
2021/09/24 04:44:18;;;;;;;0.93;0.50;;;14.00;99.90;;;;;;5095740;28;20204;-82
2021/09/24 04:46:47;;;;;;;0.37;0.30;;;14.00;99.90;;;;;;5106642;28;20169;-82
2021/09/24 04:49:12;;;;;;;0.10;0.10;;;14.10;99.90;;;;;;5096606;28;20166;-82
2021/09/24 04:51:38;;;;;;;0.40;0.30;;;14.10;99.90;;;;;;5106626;28;20208;-81
2021/09/24 04:54:03;;;;;;;0.20;0.20;;;14.10;99.90;;;;;;5108897;28;20260;-81
2021/09/24 04:56:29;;;;;;;0.20;0.20;;;14.10;99.90;;;;;;5104328;28;20200;-81
2021/09/24 04:58:55;;;;;;;0.30;0.30;;;14.20;99.90;;;;;;5091028;28;20189;-81
2021/09/24 05:01:20;;;;;;;0.20;0.20;;;14.10;99.90;;;;;;5083730;28;20212;-81
2021/09/24 05:03:46;;;;;;;0.37;0.30;;;13.90;99.90;;;;;;5108035;28;20241;-81
2021/09/24 05:06:11;;;;;;;1.53;0.73;;;13.60;99.90;;;;;;5106843;28;20181;-80
2021/09/24 05:08:37;;;;;;;0.40;0.40;;;13.40;99.90;;;;;;5104972;28;20176;-81
2021/09/24 05:11:02;;;;;;;0.50;0.37;;;13.40;99.90;;;;;;5099707;28;20185;-82
2021/09/24 05:13:28;;;;;;;0.17;0.17;;;13.40;99.90;;;;;;5094272;28;20235;-81
2021/09/24 05:15:54;;;;;;;0.20;0.20;;;13.40;99.90;;;;;;5095759;28;20182;-81
2021/09/24 05:18:19;;;;;;;0.83;0.47;;;13.30;99.90;;;;;;5096215;28;20184;-82
2021/09/24 05:20:45;;;;;;;0.33;0.33;;;13.30;99.90;;;;;;5095171;28;20208;-81
2021/09/24 05:23:10;;;;;;;0.50;0.50;;;13.20;99.90;;;;;;5102638;28;20688;-81
2021/09/24 05:25:36;;;;;;;0.30;0.30;;;13.10;99.90;;;;;;5088115;28;20191;-80
2021/09/24 05:28:02;;;;;;;1.03;0.97;;;13.00;99.90;;;;;;5095055;28;20219;-83
2021/09/24 05:30:27;;;;;;;0.20;0.20;;;12.90;99.90;;;;;;5093901;28;20185;-82
2021/09/24 05:32:53;;;;;;;0.30;0.30;;;12.80;99.90;;;;;;5087134;28;20222;-82
2021/09/24 05:35:19;;;;;;;1.07;0.77;;;12.80;99.90;;;;;;5074409;28;20586;-81
2021/09/24 05:37:47;;;;;;;0.40;0.40;;;13.00;99.90;;;;;;5091316;28;20177;-81
2021/09/24 05:40:13;;;;;;;0.30;0.30;;;13.20;99.90;;;;;;5095691;28;20180;-82
2021/09/24 05:42:39;;;;;;;0.10;0.10;;;13.30;99.90;;;;;;5098111;28;20196;-82
2021/09/24 05:45:09;;;;;;;0.20;0.10;;;13.40;99.90;;;;;;5103148;28;20200;-82
2021/09/24 05:47:35;;;;;;;0.40;0.40;;;13.50;99.90;;;;;;5100834;28;20303;-83
2021/09/24 05:50:00;;;;;;;0.20;0.20;;;13.60;99.90;;;;;;5098940;28;20181;-83
2021/09/24 05:52:26;;;;;;;0.47;0.47;;;13.70;99.90;;;;;;5089319;28;20211;-84
2021/09/24 05:54:52;;;;;;;0.20;0.20;;;13.90;99.90;;;;;;5099024;28;20618;-85
2021/09/24 05:57:18;;;;;;;0.83;0.50;;;13.70;99.90;;;;;;5096087;28;20201;-84
2021/09/24 05:59:43;;;;;;;0.13;0.13;;;13.80;99.90;;;;;;5096794;28;20189;-84
2021/09/24 06:02:09;;;;;;;0.20;0.20;;;13.90;99.90;;;;;;5098384;28;20266;-83
2021/09/24 06:04:34;;;;;;;0.33;0.30;;;14.10;99.90;;;;;;5093612;28;20179;-85
2021/09/24 06:07:00;;;;;;;0.10;0.10;;;14.20;99.90;;;;;;5090883;28;20196;-84
2021/09/24 06:09:26;;;;;;;0.30;0.30;;;14.30;99.90;;;;;;5091398;28;20214;-83
2021/09/24 06:11:51;;;;;;;0.30;0.30;;;14.50;99.90;;;;;;5083598;28;20206;-83
2021/09/24 06:14:17;;;;;;;0.30;0.30;;;14.70;99.90;;;;;;5086377;28;20227;-84
2021/09/24 06:16:42;;;;;;;0.43;0.20;;;14.80;99.90;;;;;;5085676;28;20186;-85
2021/09/24 06:19:08;;;;;;;0.10;0.10;;;14.90;99.90;;;;;;5086583;28;20227;-83
2021/09/24 06:21:34;;;;;;;5.00;0.33;;;15.00;99.90;;;;;;5103024;28;20201;-84
2021/09/24 06:24:00;;;;;;;0.57;0.40;;;15.10;99.90;;;;;;5090956;28;20189;-84
2021/09/24 06:26:25;;;;;;;0.50;0.50;;;15.30;99.90;;;;;;5086789;28;20870;-84
2021/09/24 06:28:52;;;;;;;0.30;0.23;;;15.40;99.90;;;;;;5082777;28;20185;-84
2021/09/24 06:31:18;;;;;;;0.23;0.23;;;15.50;99.90;;;;;;5070708;28;20440;-84
2021/09/24 06:33:43;;;;;;;0.40;0.40;;;15.60;99.90;;;;;;5073854;28;20212;-83
2021/09/24 06:36:09;;;;;;;0.63;0.60;;;15.70;99.90;;;;;;5064371;28;20204;-82
2021/09/24 06:38:34;;;;;;;0.30;0.30;;;15.80;99.90;;;;;;5062362;28;20178;-84
2021/09/24 06:41:00;;;;;;;0.37;0.37;;;15.90;99.90;;;;;;5070281;28;20232;-84
2021/09/24 06:43:26;;;;;;;0.17;0.17;;;16.00;99.90;;;;;;5071420;28;20268;-83
2021/09/24 06:45:51;;;;;;;0.40;0.40;;;16.10;99.90;;;;;;5072339;28;20184;-84
2021/09/24 06:48:17;;;;;;;0.30;0.30;;;16.30;99.90;;;;;;5070049;28;20253;-83
2021/09/24 06:50:43;;;;;;;0.60;0.37;;;16.40;99.90;;;;;;5072985;28;20184;-84
2021/09/24 06:53:08;;;;;;;0.50;0.50;;;16.40;99.90;;;;;;5095157;28;20199;-84
2021/09/24 06:55:34;;;;;;;0.47;0.40;;;16.50;99.90;;;;;;5087330;28;20186;-85
2021/09/24 06:58:00;;;;;;;0.30;0.30;;;16.60;99.90;;;;;;5079401;28;20171;-83
2021/09/24 07:00:26;;;;;;;0.20;0.20;;;16.70;99.90;;;;;;5075792;28;20172;-83
2021/09/24 07:02:51;;;;;;;1.07;0.50;;;16.90;99.90;;;;;;5075664;28;20204;-84
2021/09/24 07:05:17;;;;;;;0.40;0.40;;;16.90;99.90;;;;;;5071216;28;20242;-84
2021/09/24 07:07:43;;;;;;;0.20;0.20;;;16.90;99.90;;;;;;5083284;28;20184;-84
2021/09/24 07:10:10;;;;;;;0.60;0.60;;;17.00;99.90;;;;;;5084302;28;20184;-83
2021/09/24 07:12:36;;;;;;;1.13;1.00;;;17.00;99.90;;;;;;5058211;28;20688;-85
2021/09/24 07:15:02;;;;;;;0.97;0.60;;;17.10;99.90;;;;;;5090538;28;20179;-85
2021/09/24 07:17:27;;;;;;;0.37;0.37;;;17.10;99.90;;;;;;5084301;28;20243;-85
2021/09/24 07:19:53;;;;;;;0.70;0.70;;;17.00;99.90;;;;;;5062651;28;20189;-84
2021/09/24 07:22:19;;;;;;;0.30;0.30;;;17.20;99.90;;;;;;5071755;28;20239;-84
2021/09/24 07:24:45;;;;;;;0.50;0.50;;;17.40;99.90;;;;;;5069059;28;20201;-82
2021/09/24 07:27:11;;;;;;;2.53;0.80;;;17.40;99.90;;;;;;5065741;28;20737;-83
2021/09/24 07:29:36;;;;;;;0.70;0.70;;;17.30;99.90;;;;;;5081132;28;20266;-82
2021/09/24 07:32:03;;;;;;;0.80;0.80;;;17.30;99.90;;;;;;5093645;28;20203;-82
2021/09/24 07:34:29;;;;;;;1.13;1.13;;;17.40;99.90;;;;;;5081424;28;20300;-82
2021/09/24 07:36:55;;;;;;;0.20;0.20;;;17.40;99.90;;;;;;5075012;28;20208;-83
2021/09/24 07:39:21;;;;;;;1.40;1.30;;;17.40;99.90;;;;;;5085047;28;20286;-83
2021/09/24 07:41:46;;;;;;;0.60;0.60;;;17.30;99.90;;;;;;5081133;28;20203;-82
2021/09/24 07:44:12;;;;;;;2.47;1.80;;;17.50;99.90;;;;;;5079433;28;20652;-82
2021/09/24 07:46:38;;;;;;;0.53;0.53;;;17.50;99.90;;;;;;5082264;28;20196;-82
2021/09/24 07:49:04;;;;;;;0.40;0.40;;;17.60;99.90;;;;;;5087545;28;20554;-82
2021/09/24 07:51:31;;;;;;;2.47;0.80;;;17.70;99.90;;;;;;5087096;28;20206;-82
2021/09/24 07:53:56;;;;;;;0.47;0.47;;;17.90;99.90;;;;;;5081567;28;20282;-82
2021/09/24 07:56:23;;;;;;;1.07;0.80;;;18.00;99.90;;;;;;5084069;28;20650;-83
2021/09/24 07:58:49;;;;;;;0.77;0.77;;;18.00;99.90;;;;;;5080933;28;20257;-82
2021/09/24 08:01:16;;;;;;;1.20;0.67;;;18.00;99.90;;;;;;5092606;28;20214;-83
2021/09/24 08:03:41;;;;;;;0.57;0.57;;;18.00;99.90;;;;;;5076356;28;20181;-82
2021/09/24 08:06:07;;;;;;;1.37;0.63;;;18.00;99.90;;;;;;5082704;28;20548;-82
2021/09/24 08:08:33;;;;;;;0.47;0.47;;;18.10;99.90;;;;;;5084750;28;20703;-82
2021/09/24 08:10:59;;;;;;;1.40;1.00;;;18.10;99.90;;;;;;5083094;28;20701;-82
2021/09/24 08:13:24;;;;;;;0.93;0.93;;;18.20;99.90;;;;;;5091176;28;20230;-83
2021/09/24 08:15:52;;;;;;;0.77;0.77;;;18.30;99.90;;;;;;5078079;28;20651;-82
2021/09/24 08:18:17;;;;;;;4.30;1.23;;;18.60;99.90;;;;;;5103271;28;20181;-82
2021/09/24 08:20:44;;;;;;;0.83;0.83;;;18.70;99.90;;;;;;5082639;28;20191;-82
2021/09/24 08:23:10;;;;;;;0.50;0.50;;;18.80;99.90;;;;;;5082062;28;20224;-82
2021/09/24 08:25:36;;;;;;;0.30;0.30;;;18.80;99.90;;;;;;5071133;28;20263;-83
2021/09/24 08:28:02;;;;;;;2.80;0.60;;;19.00;99.90;;;;;;5090970;28;20192;-82
2021/09/24 08:30:28;;;;;;;0.50;0.40;;;19.20;99.90;;;;;;5090627;28;20191;-82
2021/09/24 08:32:55;;;;;;;0.60;0.53;;;19.30;99.90;;;;;;5079342;28;20684;-83
2021/09/24 08:35:21;;;;;;;1.13;0.50;;;19.30;99.90;;;;;;5083244;28;20185;-83
2021/09/24 08:37:49;;;;;;;0.40;0.40;;;19.50;99.90;;;;;;5085658;28;20752;-82
2021/09/24 08:40:17;;;;;;;0.30;0.30;;;19.70;99.90;;;;;;5078856;28;20191;-83
2021/09/24 08:42:46;;;;;;;2.17;0.50;;;19.90;99.90;;;;;;5089477;28;20200;-83
2021/09/24 08:45:20;;;;;;;0.47;0.47;;;19.80;99.90;;;;;;5078526;28;20256;-83
2021/09/24 08:47:47;;;;;;;0.60;0.60;;;20.00;99.90;;;;;;5091130;28;20180;-83
2021/09/24 08:50:12;;;;;;;0.77;0.70;;;20.20;99.90;;;;;;5092788;28;20181;-83
2021/09/24 08:52:39;;;;;;;0.50;0.50;;;20.20;99.90;;;;;;5082452;28;20228;-83
2021/09/24 08:55:07;;;;;;;0.47;0.47;;;20.20;99.90;;;;;;5071819;28;20269;-82
2021/09/24 08:57:33;;;;;;;0.40;0.30;;;20.20;99.90;;;;;;5080429;28;20202;-83
2021/09/24 08:59:59;;;;;;;0.40;0.40;;;20.40;99.90;;;;;;5080121;28;20637;-83
2021/09/24 09:02:25;;;;;;;0.50;0.50;;;20.60;99.90;;;;;;5083707;28;20213;-82
2021/09/24 09:04:51;;;;;;;1.23;0.60;;;20.70;99.90;;;;;;5086098;28;20199;-82
2021/09/24 09:07:21;;;;;;;0.50;0.40;;;20.70;99.90;;;;;;5078830;28;20269;-83
2021/09/24 09:09:50;;;;;;;0.30;0.30;;;20.80;99.90;;;;;;5090302;28;20196;-82
2021/09/24 09:12:28;;;;;;;1.37;0.50;;;20.90;99.90;;;;;;5076942;28;20208;-82
2021/09/24 09:15:03;;;;;;;0.80;0.80;;;21.00;99.90;;;;;;5075811;28;20208;-83
2021/09/24 09:17:36;;;;;;;0.40;0.40;;;21.10;99.90;;;;;;5071591;28;20189;-83
2021/09/24 09:20:23;;;;;;;0.27;0.27;;;21.30;99.90;;;;;;5071575;28;20192;-83
2021/09/24 09:23:04;;;;;;;0.50;0.50;;;21.40;99.90;;;;;;5078276;28;20205;-83
2021/09/24 09:25:32;;;;;;;0.20;0.20;;;21.50;99.90;;;;;;5076440;28;20182;-84
2021/09/24 09:28:00;;;;;;;0.30;0.30;;;21.70;99.90;;;;;;5069013;28;20224;-83
2021/09/24 09:30:26;;;;;;;2.57;0.60;;;21.70;99.90;;;;;;5089076;28;20180;-83
2021/09/24 09:33:01;;;;;;;0.77;0.77;;;21.90;99.90;;;;;;5100558;28;20205;-84
2021/09/24 09:35:28;;;;;;;0.63;0.63;;;21.90;99.90;;;;;;5077809;28;20634;-83
2021/09/24 09:37:55;;;;;;;1.27;1.00;;;22.00;99.90;;;;;;5094550;28;20192;-83
2021/09/24 09:40:22;;;;;;;0.40;0.40;;;22.00;99.90;;;;;;5079160;28;20184;-83
2021/09/24 09:42:50;;;;;;;0.37;0.37;;;22.20;99.90;;;;;;5078556;28;20279;-83
2021/09/24 09:45:18;;;;;;;3.57;0.80;;;22.30;99.90;;;;;;5077315;28;20188;-82
2021/09/24 09:47:47;;;;;;;0.83;0.83;;;22.30;99.90;;;;;;5084360;28;20199;-82
2021/09/24 09:50:22;;;;;;;0.70;0.70;;;22.40;99.90;;;;;;5083643;28;20275;-84
2021/09/24 09:53:12;;;;;;;0.50;0.50;;;22.30;99.90;;;;;;5072798;28;20205;-83
2021/09/24 09:55:40;;;;;;;0.30;0.30;;;22.50;99.90;;;;;;5072325;28;20182;-83
2021/09/24 09:58:10;;;;;;;0.50;0.50;;;22.70;99.90;;;;;;5082359;28;20188;-83
2021/09/24 10:00:55;;;;;;;0.43;0.40;;;22.80;99.90;;;;;;5088878;28;20174;-83
2021/09/24 10:03:36;;;;;;;0.30;0.20;;;22.80;99.90;;;;;;5078578;28;20217;-83
2021/09/24 10:06:16;;;;;;;0.27;0.27;;;22.80;99.90;;;;;;5073632;28;20184;-83
2021/09/24 10:08:42;;;;;;;0.30;0.30;;;23.10;99.90;;;;;;5094338;28;20214;-83
2021/09/24 10:11:13;;;;;;;0.60;0.43;;;22.90;99.90;;;;;;5079672;28;20268;-84
2021/09/24 10:13:55;;;;;;;1.00;0.50;;;22.90;99.90;;;;;;5085330;28;20311;-83
2021/09/24 10:16:36;;;;;;;0.53;0.47;;;23.10;99.90;;;;;;5079011;28;20187;-83
2021/09/24 10:19:02;;;;;;;0.43;0.40;;;23.20;99.90;;;;;;5074582;28;20237;-83
2021/09/24 10:21:28;;;;;;;0.73;0.57;;;23.20;99.90;;;;;;5087224;28;20612;-83
2021/09/24 10:23:54;;;;;;;0.40;0.40;;;23.30;99.90;;;;;;5084905;28;20189;-83
2021/09/24 10:26:28;;;;;;;0.57;0.40;;;23.40;99.90;;;;;;5069817;28;20197;-83
2021/09/24 10:29:02;;;;;;;0.20;0.20;;;23.50;99.90;;;;;;5087664;28;20248;-83
2021/09/24 10:31:28;;;;;;;0.13;0.13;;;23.50;99.90;;;;;;5079227;28;20219;-83
2021/09/24 10:34:00;;;;;;;0.77;0.60;;;23.50;99.90;;;;;;5090630;28;20208;-83
2021/09/24 10:36:47;;;;;;;0.40;0.40;;;23.50;99.90;;;;;;5081452;28;20191;-83
2021/09/24 10:39:30;;;;;;;0.67;0.47;;;23.40;99.90;;;;;;5074626;28;20555;-83
2021/09/24 10:42:18;;;;;;;0.20;0.20;;;23.40;99.90;;;;;;5080304;28;20208;-83
2021/09/24 10:45:05;;;;;;;0.37;0.30;;;23.60;99.90;;;;;;5073400;28;20556;-83
2021/09/24 10:47:52;;;;;;;0.20;0.20;;;23.60;99.90;;;;;;5086441;28;20188;-83
2021/09/24 10:50:33;;;;;;;0.20;0.20;;;23.80;99.90;;;;;;5082537;28;20195;-83
2021/09/24 10:53:12;;;;;;;0.20;0.20;;;23.60;99.90;;;;;;5080327;28;20197;-83
2021/09/24 10:55:41;;;;;;;0.33;0.33;;;23.20;99.90;;;;;;5092569;28;20179;-83
2021/09/24 10:58:34;;;;;;;0.30;0.30;;;22.80;99.90;;;;;;5083831;28;20234;-83
2021/09/24 11:01:07;;;;;;;0.20;0.20;;;22.80;99.90;;;;;;5102810;28;20181;-83
2021/09/24 11:03:48;;;;;;;0.50;0.50;;;22.80;99.90;;;;;;5078824;28;20215;-83
2021/09/24 11:06:14;;;;;;;0.40;0.40;;;22.70;99.90;;;;;;5076894;28;20669;-82
2021/09/24 11:08:44;;;;;;;0.40;0.40;;;22.70;99.90;;;;;;5087544;28;20176;-82
2021/09/24 11:11:23;;;;;;;0.33;0.33;;;22.60;99.90;;;;;;5077662;28;20196;-82
2021/09/24 11:13:54;;;;;;;0.30;0.30;;;22.50;99.90;;;;;;5072261;28;20219;-83
2021/09/24 11:16:25;;;;;;;0.60;0.60;;;22.30;99.90;;;;;;5075538;28;20192;-84
2021/09/24 11:18:55;;;;;;;0.40;0.40;;;22.30;99.90;;;;;;5083236;28;20184;-83
2021/09/24 11:21:25;;;;;;;0.37;0.33;;;22.20;99.90;;;;;;5082887;28;20245;-83
2021/09/24 11:23:52;;;;;;;0.30;0.30;;;22.10;99.90;;;;;;5076093;28;20193;-83
2021/09/24 11:26:22;;;;;;;0.30;0.30;;;22.10;99.90;;;;;;5079322;28;20210;-83
2021/09/24 11:29:09;;;;;;;0.10;0.10;;;22.20;99.90;;;;;;5070538;28;20193;-84
2021/09/24 11:31:53;;;;;;;0.87;0.50;;;22.20;99.90;;;;;;5076843;28;20269;-83
2021/09/24 11:37:04;;;;;;;1.13;0.87;;;22.10;99.90;;;;;;5081455;28;20193;-82
2021/09/24 11:39:31;;;;;;;0.40;0.40;;;21.90;99.90;;;;;;5083564;28;20196;-83
2021/09/24 11:42:15;;;;;;;0.30;0.30;;;21.90;99.90;;;;;;5085749;28;20570;-83
2021/09/24 11:44:48;;;;;;;1.30;0.20;;;21.90;99.90;;;;;;5078182;28;20184;-83
2021/09/24 11:47:19;;;;;;;0.20;0.20;;;21.90;99.90;;;;;;5082812;28;20260;-83
2021/09/24 11:50:10;;;;;;;0.30;0.30;;;21.90;99.90;;;;;;5086920;28;20187;-83
2021/09/24 11:52:52;;;;;;;2.47;1.73;;;22.10;99.90;;;;;;5081610;28;20227;-83
2021/09/24 11:55:23;;;;;;;1.90;1.80;;;22.20;99.90;;;;;;5078257;28;20208;-83
2021/09/24 11:57:58;;;;;;;0.20;0.20;;;22.20;99.90;;;;;;5070911;28;20260;-83
2021/09/24 12:00:25;;;;;;;0.20;0.20;;;22.20;99.90;;;;;;5081309;28;20216;-84
2021/09/24 12:03:12;;;;;;;0.10;0.10;;;22.30;99.90;;;;;;5071654;28;20192;-83
2021/09/24 12:05:38;;;;;;;0.20;0.20;;;22.50;99.90;;;;;;5084414;28;20563;-83
2021/09/24 12:08:14;;;;;;;0.20;0.20;;;22.30;99.90;;;;;;5078210;28;20540;-83
2021/09/24 12:10:40;;;;;;;0.10;0.10;;;22.30;99.90;;;;;;5080587;28;20178;-82
2021/09/24 12:13:16;;;;;;;0.20;0.20;;;22.10;99.90;;;;;;5086677;28;20212;-83
2021/09/24 12:15:59;;;;;;;0.10;0.10;;;22.10;99.90;;;;;;5085188;28;20172;-83
2021/09/24 12:18:44;;;;;;;0.10;0.10;;;22.10;99.90;;;;;;5089957;28;20298;-82
2021/09/24 12:21:10;;;;;;;0.10;0.10;;;22.20;99.90;;;;;;5060102;28;20703;-82
2021/09/24 12:23:36;;;;;;;0.10;0.10;;;22.10;99.90;;;;;;5084124;28;20180;-82
2021/09/24 12:26:04;;;;;;;0.10;0.10;;;22.10;99.90;;;;;;5056995;28;20185;-83
2021/09/24 12:28:31;;;;;;;0.20;0.20;;;22.10;99.90;;;;;;5068594;28;20680;-86
2021/09/24 12:30:58;;;;;;;0.10;0.10;;;21.90;99.90;;;;;;5083219;28;20183;-85
2021/09/24 12:33:23;;;;;;;0.10;0.10;;;21.80;99.90;;;;;;5075738;28;20210;-84
2021/09/24 12:36:01;;;;;;;0.10;0.10;;;21.70;99.90;;;;;;5085442;28;20182;-84
2021/09/24 12:38:31;;;;;;;0.13;0.13;;;21.60;99.90;;;;;;5084532;28;20207;-84
2021/09/24 12:41:15;;;;;;;0.07;0.07;;;21.50;99.90;;;;;;5083018;28;20168;-84
2021/09/24 12:43:42;;;;;;;0.10;0.10;;;21.50;99.90;;;;;;5081166;28;20181;-84
2021/09/24 12:46:09;;;;;;;0.70;0.43;;;21.60;99.90;;;;;;5077271;28;20226;-84
2021/09/24 12:48:46;;;;;;;0.10;0.10;;;21.70;99.90;;;;;;5075166;28;20176;-84
2021/09/24 12:51:14;;;;;;;0.47;0.20;;;21.70;99.90;;;;;;5070237;28;20188;-83
2021/09/24 12:53:43;;;;;;;0.20;0.20;;;21.60;99.90;;;;;;5073283;28;20207;-84
2021/09/24 12:56:11;;;;;;;0.10;0.10;;;21.70;99.90;;;;;;5085825;28;20225;-84